createdAt,value
2022-08-26T00:01:59.716Z,21.60
2022-08-26T00:04:28.753Z,21.57
2022-08-26T00:06:56.334Z,23.08
2022-08-26T00:09:23.578Z,21.50
2022-08-26T00:11:51.624Z,27.02
2022-08-26T00:14:18.388Z,22.10
2022-08-26T00:16:48.226Z,21.47
2022-08-26T00:19:19.217Z,22.83
2022-08-26T00:21:48.693Z,21.05
2022-08-26T00:24:21.724Z,22.95
2022-08-26T00:26:49.073Z,22.42
2022-08-26T00:29:15.999Z,20.00
2022-08-26T00:31:42.544Z,22.75
2022-08-26T00:34:12.071Z,23.95
2022-08-26T00:36:39.701Z,22.20
2022-08-26T00:39:07.591Z,25.42
2022-08-26T00:41:35.349Z,24.13
2022-08-26T00:44:01.974Z,21.38
2022-08-26T00:46:31.390Z,21.10
2022-08-26T00:49:29.970Z,21.45
2022-08-26T00:52:01.084Z,23.13
2022-08-26T00:54:31.705Z,25.50
2022-08-26T00:57:04.859Z,27.65
2022-08-26T00:59:35.938Z,30.52
2022-08-26T01:02:05.943Z,24.83
2022-08-26T01:04:36.050Z,32.85
2022-08-26T01:07:03.876Z,34.27
2022-08-26T01:09:32.304Z,45.10
2022-08-26T01:12:02.068Z,43.22
2022-08-26T01:14:36.696Z,43.65
2022-08-26T01:17:05.503Z,43.83
2022-08-26T01:19:47.408Z,45.57
2022-08-26T01:22:23.131Z,49.65
2022-08-26T01:24:55.003Z,42.70
2022-08-26T01:27:23.391Z,47.95
2022-08-26T01:29:50.690Z,47.30
2022-08-26T01:32:22.229Z,49.20
2022-08-26T01:34:50.111Z,47.30
2022-08-26T01:37:20.627Z,43.92
2022-08-26T01:39:51.308Z,46.90
2022-08-26T01:42:20.773Z,46.45
2022-08-26T01:44:59.851Z,45.73
2022-08-26T01:47:29.933Z,53.10
2022-08-26T01:49:59.785Z,46.65
2022-08-26T01:52:28.610Z,49.72
2022-08-26T01:54:57.090Z,48.78
2022-08-26T01:57:25.895Z,49.20
2022-08-26T01:59:55.640Z,50.28
2022-08-26T02:02:23.255Z,44.25
2022-08-26T02:04:57.228Z,50.03
2022-08-26T02:07:26.707Z,50.55
2022-08-26T02:09:53.869Z,55.07
2022-08-26T02:12:21.027Z,60.88
2022-08-26T02:14:53.581Z,62.63
2022-08-26T02:17:25.768Z,61.13
2022-08-26T02:19:52.711Z,56.95
2022-08-26T02:22:22.023Z,57.23
2022-08-26T02:24:52.682Z,60.15
2022-08-26T02:27:26.343Z,56.58
2022-08-26T02:30:03.265Z,60.83
2022-08-26T02:32:29.735Z,52.20
2022-08-26T02:34:56.367Z,57.23
2022-08-26T02:37:23.128Z,56.17
2022-08-26T02:39:49.627Z,60.75
2022-08-26T02:42:16.232Z,60.33
2022-08-26T02:44:42.673Z,55.15
2022-08-26T02:47:13.652Z,58.47
2022-08-26T02:49:47.473Z,46.95
2022-08-26T02:52:14.167Z,56.08
2022-08-26T02:54:40.567Z,56.13
2022-08-26T02:57:07.052Z,49.90
2022-08-26T02:59:35.871Z,51.63
2022-08-26T03:02:03.056Z,57.17
2022-08-26T03:04:31.063Z,53.65
2022-08-26T03:06:59.963Z,53.17
2022-08-26T03:09:27.004Z,53.80
2022-08-26T03:11:55.271Z,62.23
2022-08-26T03:14:23.899Z,55.17
2022-08-26T03:16:53.862Z,59.45
2022-08-26T03:19:22.834Z,58.92
2022-08-26T03:21:49.658Z,56.10
2022-08-26T03:24:17.459Z,60.63
2022-08-26T03:26:52.017Z,64.40
2022-08-26T03:29:38.641Z,55.60
2022-08-26T03:32:06.136Z,57.00
2022-08-26T03:34:32.991Z,55.22
2022-08-26T03:36:59.646Z,54.90
2022-08-26T03:39:26.314Z,54.58
2022-08-26T03:41:53.587Z,61.10
2022-08-26T03:44:20.880Z,64.05
2022-08-26T03:46:47.341Z,60.33
2022-08-26T03:49:15.171Z,56.93
2022-08-26T03:51:42.091Z,55.63
2022-08-26T03:54:09.159Z,54.47
2022-08-26T03:56:36.612Z,56.47
2022-08-26T03:59:04.600Z,54.38
2022-08-26T04:01:31.953Z,56.70
2022-08-26T04:04:00.325Z,58.67
2022-08-26T04:06:30.227Z,52.97
2022-08-26T04:08:58.820Z,52.28
2022-08-26T04:11:34.118Z,54.97
2022-08-26T04:14:04.923Z,54.60
2022-08-26T04:16:31.573Z,54.50
2022-08-26T04:18:58.841Z,51.78
2022-08-26T04:21:26.689Z,50.40
2022-08-26T04:23:54.316Z,51.42
2022-08-26T04:26:22.206Z,52.13
2022-08-26T04:28:50.256Z,50.83
2022-08-26T04:31:18.558Z,47.00
2022-08-26T04:33:47.644Z,49.15
2022-08-26T04:36:16.732Z,56.50
2022-08-26T04:38:43.199Z,52.87
2022-08-26T04:41:15.292Z,51.17
2022-08-26T04:43:44.396Z,53.70
2022-08-26T04:46:13.090Z,49.47
2022-08-26T04:48:41.144Z,51.33
2022-08-26T04:51:09.384Z,49.97
2022-08-26T04:53:36.796Z,48.22
2022-08-26T04:56:03.352Z,49.83
2022-08-26T04:58:31.022Z,46.10
2022-08-26T05:00:58.350Z,47.80
2022-08-26T05:03:27.181Z,41.53
2022-08-26T05:05:57.371Z,41.28
2022-08-26T05:08:24.203Z,45.85
2022-08-26T05:10:56.260Z,46.75
2022-08-26T05:13:25.426Z,43.00
2022-08-26T05:15:52.502Z,42.93
2022-08-26T05:18:22.784Z,44.05
2022-08-26T05:20:53.953Z,42.10
2022-08-26T05:23:22.805Z,42.17
2022-08-26T05:25:53.645Z,40.13
2022-08-26T05:28:22.606Z,39.03
2022-08-26T05:30:49.958Z,43.50
2022-08-26T05:33:17.272Z,41.53
2022-08-26T05:35:45.240Z,38.88
2022-08-26T05:38:15.539Z,36.17
2022-08-26T05:40:45.682Z,36.30
2022-08-26T05:43:13.446Z,41.88
2022-08-26T05:45:46.118Z,38.63
2022-08-26T05:48:13.782Z,44.05
2022-08-26T05:50:46.537Z,36.47
2022-08-26T05:53:15.313Z,39.73
2022-08-26T05:55:48.053Z,39.85
2022-08-26T05:58:15.064Z,39.92
2022-08-26T06:00:45.118Z,41.30
2022-08-26T06:03:11.725Z,42.05
2022-08-26T06:05:41.823Z,45.47
2022-08-26T06:08:11.608Z,41.35
2022-08-26T06:10:49.227Z,42.47
2022-08-26T06:13:19.469Z,43.95
2022-08-26T06:15:48.339Z,41.30
2022-08-26T06:18:17.179Z,44.43
2022-08-26T06:20:57.070Z,39.90
2022-08-26T06:23:45.002Z,43.72
2022-08-26T06:26:12.771Z,46.33
2022-08-26T06:28:39.234Z,38.08
2022-08-26T06:31:06.057Z,42.93
2022-08-26T06:33:33.259Z,36.08
2022-08-26T06:36:01.030Z,38.25
2022-08-26T06:38:28.673Z,36.55
2022-08-26T06:40:55.343Z,37.22
2022-08-26T06:43:24.135Z,36.97
2022-08-26T06:45:51.122Z,33.85
2022-08-26T06:48:20.416Z,36.72
2022-08-26T06:50:47.897Z,36.85
2022-08-26T06:53:16.966Z,36.28
2022-08-26T06:55:46.850Z,34.93
2022-08-26T06:58:18.259Z,36.28
2022-08-26T07:00:47.515Z,34.10
2022-08-26T07:03:14.231Z,37.78
2022-08-26T07:05:40.720Z,33.35
2022-08-26T07:08:07.235Z,35.23
2022-08-26T07:10:35.681Z,30.30
2022-08-26T07:13:02.586Z,33.22
2022-08-26T07:15:31.418Z,31.48
2022-08-26T07:17:58.114Z,32.25
2022-08-26T07:20:24.561Z,30.80
2022-08-26T07:22:51.422Z,30.75
2022-08-26T07:25:19.261Z,30.70
2022-08-26T07:27:46.511Z,27.25
2022-08-26T07:30:20.792Z,26.52
2022-08-26T07:32:47.436Z,28.10
2022-08-26T07:35:14.605Z,27.45
2022-08-26T07:37:41.051Z,26.85
2022-08-26T07:40:09.373Z,26.85
2022-08-26T07:42:35.979Z,26.88
2022-08-26T07:45:02.435Z,23.20
2022-08-26T07:47:29.007Z,26.33
2022-08-26T07:49:57.445Z,20.77
2022-08-26T07:52:27.193Z,22.02
2022-08-26T07:54:55.207Z,22.75
2022-08-26T07:57:21.768Z,23.67
2022-08-26T07:59:51.289Z,24.88
2022-08-26T08:02:17.802Z,23.77
2022-08-26T08:04:45.020Z,24.63
2022-08-26T08:07:12.555Z,23.95
2022-08-26T08:09:40.733Z,29.13
2022-08-26T08:12:07.563Z,23.50
2022-08-26T08:14:36.443Z,25.48
2022-08-26T08:17:04.463Z,25.30
2022-08-26T08:19:36.672Z,26.52
2022-08-26T08:22:17.385Z,25.43
2022-08-26T08:24:46.773Z,28.40
2022-08-26T08:27:18.126Z,26.20
2022-08-26T08:29:47.927Z,22.40
2022-08-26T08:32:15.467Z,24.77
2022-08-26T08:37:13.578Z,21.67
2022-08-26T08:39:40.891Z,22.08
2022-08-26T08:42:19.939Z,20.65
2022-08-26T08:44:52.874Z,21.20
2022-08-26T08:47:42.061Z,19.97
2022-08-26T08:50:25.546Z,21.80
2022-08-26T08:52:59.379Z,20.45
2022-08-26T08:55:36.168Z,19.83
2022-08-26T08:58:06.651Z,20.70
2022-08-26T09:01:00.209Z,18.70
2022-08-26T09:03:55.410Z,20.48
2022-08-26T09:06:21.914Z,19.70
2022-08-26T09:08:51.092Z,19.30
2022-08-26T09:11:19.819Z,17.45
2022-08-26T09:13:53.702Z,20.20
2022-08-26T09:16:40.941Z,22.75
2022-08-26T09:19:33.132Z,19.25
2022-08-26T09:22:04.614Z,18.20
2022-08-26T09:24:39.632Z,18.85
2022-08-26T09:27:08.950Z,22.00
2022-08-26T09:29:43.763Z,16.77
2022-08-26T09:32:24.050Z,18.00
2022-08-26T09:35:27.768Z,19.23
2022-08-26T09:37:55.141Z,18.33
2022-08-26T09:40:27.467Z,18.23
2022-08-26T09:43:08.514Z,17.20
2022-08-26T09:45:37.191Z,20.80
2022-08-26T09:48:03.725Z,18.88
2022-08-26T09:50:36.395Z,18.65
2022-08-26T09:53:14.454Z,16.97
2022-08-26T09:55:47.558Z,14.68
2022-08-26T09:58:33.744Z,13.70
2022-08-26T10:01:04.237Z,14.30
2022-08-26T10:03:34.547Z,11.32
2022-08-26T10:06:21.155Z,13.10
2022-08-26T10:08:54.241Z,11.80
2022-08-26T10:11:31.173Z,11.85
2022-08-26T10:14:13.402Z,11.27
2022-08-26T10:16:50.697Z,14.05
2022-08-26T10:19:25.235Z,15.23
2022-08-26T10:22:06.050Z,16.75
2022-08-26T10:24:43.011Z,13.23
2022-08-26T10:27:51.003Z,14.57
2022-08-26T10:30:22.058Z,12.90
2022-08-26T10:32:52.077Z,11.47
2022-08-26T10:35:19.307Z,17.90
2022-08-26T10:37:49.892Z,14.18
2022-08-26T10:40:23.515Z,11.38
2022-08-26T10:42:55.263Z,11.95
2022-08-26T10:45:26.277Z,11.93
2022-08-26T10:48:16.452Z,12.32
2022-08-26T10:50:47.629Z,10.73
2022-08-26T10:53:19.742Z,11.73
2022-08-26T10:56:05.372Z,10.98
2022-08-26T10:58:50.352Z,12.77
2022-08-26T11:01:44.186Z,10.98
2022-08-26T11:04:38.531Z,11.48
2022-08-26T11:07:32.751Z,12.48
2022-08-26T11:10:20.662Z,14.93
2022-08-26T11:12:49.603Z,10.60
2022-08-26T11:15:24.731Z,10.25
2022-08-26T11:17:51.343Z,11.38
2022-08-26T11:20:29.932Z,11.25
2022-08-26T11:23:28.166Z,13.90
2022-08-26T11:26:10.076Z,11.87
2022-08-26T11:28:44.265Z,8.75
2022-08-26T11:31:32.590Z,9.88
2022-08-26T11:34:01.887Z,10.20
2022-08-26T11:36:47.637Z,10.43
2022-08-26T11:39:36.699Z,9.07
2022-08-26T11:42:20.328Z,10.20
2022-08-26T11:44:49.628Z,10.98
2022-08-26T11:47:25.266Z,10.98
2022-08-26T11:50:06.773Z,9.65
2022-08-26T11:52:33.232Z,8.13
2022-08-26T11:55:08.026Z,9.23
2022-08-26T11:57:41.839Z,10.95
2022-08-26T12:00:14.189Z,12.23
2022-08-26T12:02:43.556Z,12.00
2022-08-26T12:05:14.763Z,10.90
2022-08-26T12:07:42.645Z,14.38
2022-08-26T12:10:10.790Z,12.75
2022-08-26T12:12:38.713Z,10.43
2022-08-26T12:15:12.472Z,11.65
2022-08-26T12:17:39.939Z,10.10
2022-08-26T12:20:46.197Z,15.65
2022-08-26T12:23:41.360Z,9.75
2022-08-26T12:26:27.622Z,10.75
2022-08-26T12:29:02.316Z,10.40
2022-08-26T12:31:44.252Z,12.23
2022-08-26T12:34:17.972Z,11.70
2022-08-26T12:36:47.311Z,10.93
2022-08-26T12:39:24.096Z,12.95
2022-08-26T12:41:56.313Z,14.57
2022-08-26T12:44:41.768Z,12.03
2022-08-26T12:47:43.157Z,13.30
2022-08-26T12:50:18.673Z,10.35
2022-08-26T12:53:09.741Z,11.35
2022-08-26T12:55:44.708Z,10.68
2022-08-26T12:58:29.886Z,12.60
2022-08-26T13:01:22.452Z,11.30
2022-08-26T13:03:49.486Z,9.80
2022-08-26T13:06:22.191Z,13.65
2022-08-26T13:08:57.927Z,15.68
2022-08-26T13:11:35.269Z,13.90
2022-08-26T13:14:07.766Z,11.23
2022-08-26T13:16:36.005Z,13.52
2022-08-26T13:19:10.557Z,10.18
2022-08-26T13:21:43.703Z,9.20
2022-08-26T13:24:33.493Z,9.13
2022-08-26T13:27:01.026Z,11.27
2022-08-26T13:29:27.605Z,11.40
2022-08-26T13:31:55.379Z,9.18
2022-08-26T13:34:23.341Z,10.85
2022-08-26T13:36:51.713Z,11.93
2022-08-26T13:39:18.743Z,11.23
2022-08-26T13:41:46.140Z,6.55
2022-08-26T13:44:12.713Z,8.30
2022-08-26T13:46:39.343Z,4.85
2022-08-26T13:49:06.320Z,6.20
2022-08-26T13:51:33.247Z,6.68
2022-08-26T13:54:00.283Z,9.65
2022-08-26T13:56:29.555Z,7.63
2022-08-26T13:58:57.044Z,7.55
2022-08-26T14:01:24.236Z,7.20
2022-08-26T14:03:50.727Z,8.07
2022-08-26T14:06:17.244Z,7.97
2022-08-26T14:08:44.554Z,9.68
2022-08-26T14:11:11.310Z,6.40
2022-08-26T14:13:39.116Z,6.10
2022-08-26T14:16:10.416Z,7.78
2022-08-26T14:18:42.539Z,9.82
2022-08-26T14:21:13.031Z,6.40
2022-08-26T14:23:40.126Z,6.70
2022-08-26T14:26:08.314Z,7.57
2022-08-26T14:28:36.179Z,7.95
2022-08-26T14:31:04.009Z,6.82
2022-08-26T14:33:33.882Z,6.53
2022-08-26T14:36:20.100Z,7.38
2022-08-26T14:38:46.907Z,11.63
2022-08-26T14:41:17.137Z,10.07
2022-08-26T14:43:49.848Z,7.35
2022-08-26T14:46:17.767Z,7.68
2022-08-26T14:48:44.714Z,9.63
2022-08-26T14:51:11.653Z,8.40
2022-08-26T14:53:56.598Z,7.75
2022-08-26T14:56:23.124Z,11.52
2022-08-26T14:58:49.558Z,6.30
2022-08-26T15:01:15.989Z,7.68
2022-08-26T15:03:42.657Z,11.47
2022-08-26T15:06:10.340Z,7.97
2022-08-26T15:08:37.275Z,11.52
2022-08-26T15:11:04.172Z,9.60
2022-08-26T15:13:30.798Z,11.45
2022-08-26T15:15:57.402Z,10.67
2022-08-26T15:18:23.953Z,7.47
2022-08-26T15:20:50.398Z,8.63
2022-08-26T15:23:16.800Z,8.30
2022-08-26T15:25:45.664Z,8.98
2022-08-26T15:28:12.074Z,9.73
2022-08-26T15:30:39.143Z,9.07
2022-08-26T15:33:05.576Z,8.88
2022-08-26T15:35:41.514Z,10.98
2022-08-26T15:38:10.513Z,9.52
2022-08-26T15:40:37.359Z,11.63
2022-08-26T15:43:18.470Z,8.65
2022-08-26T15:45:50.530Z,9.73
2022-08-26T15:48:16.912Z,11.02
2022-08-26T15:50:50.965Z,12.30
2022-08-26T15:53:17.430Z,10.93
2022-08-26T15:55:43.859Z,9.73
2022-08-26T15:58:10.419Z,7.35
2022-08-26T16:00:37.642Z,7.85
2022-08-26T16:03:04.185Z,10.63
2022-08-26T16:05:30.670Z,9.10
2022-08-26T16:07:57.687Z,11.15
2022-08-26T16:10:24.346Z,9.32
2022-08-26T16:12:50.785Z,6.32
2022-08-26T16:15:17.236Z,8.88
2022-08-26T16:17:43.621Z,8.33
2022-08-26T16:20:10.112Z,8.18
2022-08-26T16:22:36.508Z,8.88
2022-08-26T16:25:02.972Z,9.57
2022-08-26T16:27:29.391Z,10.50
2022-08-26T16:29:55.935Z,9.17
2022-08-26T16:32:22.375Z,7.85
2022-08-26T16:34:56.651Z,7.82
2022-08-26T16:37:23.567Z,12.48
2022-08-26T16:39:50.015Z,10.82
2022-08-26T16:42:16.458Z,7.87
2022-08-26T16:44:45.522Z,12.20
2022-08-26T16:47:14.036Z,8.00
2022-08-26T16:49:41.090Z,6.93
2022-08-26T16:52:09.092Z,7.57
2022-08-26T16:54:36.469Z,11.77
2022-08-26T16:57:02.936Z,5.47
2022-08-26T16:59:32.644Z,9.23
2022-08-26T17:01:59.351Z,6.70
2022-08-26T17:04:26.690Z,7.65
2022-08-26T17:06:53.418Z,8.10
2022-08-26T17:09:20.068Z,7.55
2022-08-26T17:11:46.494Z,7.38
2022-08-26T17:14:13.264Z,8.60
2022-08-26T17:16:39.771Z,10.07
2022-08-26T17:19:06.453Z,7.03
2022-08-26T17:21:35.224Z,6.93
2022-08-26T17:24:02.787Z,7.50
2022-08-26T17:26:29.616Z,10.27
2022-08-26T17:28:56.027Z,6.50
2022-08-26T17:31:23.549Z,6.00
2022-08-26T17:33:50.920Z,7.55
2022-08-26T17:36:20.538Z,6.80
2022-08-26T17:38:46.931Z,5.97
2022-08-26T17:41:16.412Z,7.22
2022-08-26T17:43:42.871Z,7.60
2022-08-26T17:46:10.879Z,6.68
2022-08-26T17:48:39.453Z,6.82
2022-08-26T17:51:12.081Z,6.53
2022-08-26T17:53:39.200Z,11.15
2022-08-26T17:56:07.828Z,6.23
2022-08-26T17:58:35.523Z,7.25
2022-08-26T18:03:29.146Z,4.40
2022-08-26T18:05:55.618Z,5.80
2022-08-26T18:08:22.760Z,5.60
2022-08-26T18:10:49.471Z,5.05
2022-08-26T18:13:16.934Z,7.57
2022-08-26T18:15:45.417Z,6.10
2022-08-26T18:18:13.460Z,6.95
2022-08-26T18:20:41.591Z,6.77
2022-08-26T18:23:08.229Z,6.65
2022-08-26T18:25:35.124Z,6.47
2022-08-26T18:28:01.549Z,5.97
2022-08-26T18:30:27.936Z,6.95
2022-08-26T18:32:54.348Z,7.80
2022-08-26T18:35:21.471Z,6.70
2022-08-26T18:37:48.419Z,6.93
2022-08-26T18:40:16.062Z,6.63
2022-08-26T18:42:42.732Z,6.15
2022-08-26T18:45:09.841Z,6.17
2022-08-26T18:47:42.555Z,7.38
2022-08-26T18:50:10.788Z,5.78
2022-08-26T18:52:37.372Z,4.93
2022-08-26T18:55:04.233Z,8.15
2022-08-26T18:57:30.634Z,5.93
2022-08-26T18:59:57.091Z,6.22
2022-08-26T19:02:24.423Z,5.88
2022-08-26T19:04:51.799Z,5.95
2022-08-26T19:07:20.189Z,4.80
2022-08-26T19:09:46.609Z,5.97
2022-08-26T19:12:13.167Z,4.00
2022-08-26T19:14:39.937Z,5.32
2022-08-26T19:17:06.437Z,6.63
2022-08-26T19:19:33.161Z,6.15
2022-08-26T19:22:00.039Z,4.70
2022-08-26T19:24:28.430Z,5.22
2022-08-26T19:26:58.275Z,5.97
2022-08-26T19:29:27.148Z,7.35
2022-08-26T19:31:53.772Z,4.60
2022-08-26T19:34:20.893Z,7.27
2022-08-26T19:36:47.663Z,4.47
2022-08-26T19:39:14.226Z,5.00
2022-08-26T19:41:40.939Z,5.80
2022-08-26T19:44:12.893Z,8.40
2022-08-26T19:49:10.825Z,5.07
2022-08-26T19:51:37.596Z,6.90
2022-08-26T19:54:04.485Z,6.63
2022-08-26T19:56:31.660Z,6.15
2022-08-26T19:58:58.257Z,4.33
2022-08-26T20:01:25.424Z,6.03
2022-08-26T20:03:52.044Z,4.45
2022-08-26T20:06:19.958Z,8.45
2022-08-26T20:08:46.487Z,5.47
2022-08-26T20:11:17.250Z,5.17
2022-08-26T20:13:45.294Z,4.93
2022-08-26T20:16:12.068Z,4.38
2022-08-26T20:19:02.526Z,5.50
2022-08-26T20:21:34.029Z,5.78
2022-08-26T20:24:07.141Z,4.77
2022-08-26T20:26:35.337Z,5.25
2022-08-26T20:29:02.543Z,5.43
2022-08-26T20:31:29.588Z,5.15
2022-08-26T20:33:56.153Z,8.20
2022-08-26T20:36:24.362Z,4.37
2022-08-26T20:38:50.859Z,7.55
2022-08-26T20:41:17.495Z,6.10
2022-08-26T20:43:44.992Z,8.82
2022-08-26T20:46:18.183Z,5.05
2022-08-26T20:48:46.468Z,6.27
2022-08-26T20:51:12.927Z,7.18
2022-08-26T20:53:39.668Z,5.57
2022-08-26T20:56:08.660Z,6.07
2022-08-26T20:58:35.466Z,6.40
2022-08-26T21:01:07.346Z,4.80
2022-08-26T21:03:35.334Z,5.30
2022-08-26T21:06:03.052Z,4.55
2022-08-26T21:08:29.452Z,3.67
2022-08-26T21:10:55.842Z,5.22
2022-08-26T21:13:22.703Z,7.07
2022-08-26T21:15:49.141Z,6.38
2022-08-26T21:18:15.599Z,6.57
2022-08-26T21:20:41.999Z,4.85
2022-08-26T21:23:08.416Z,4.80
2022-08-26T21:25:34.807Z,10.10
2022-08-26T21:28:01.234Z,4.78
2022-08-26T21:30:27.824Z,7.70
2022-08-26T21:32:54.221Z,6.03
2022-08-26T21:35:20.724Z,4.70
2022-08-26T21:37:47.467Z,8.97
2022-08-26T21:40:14.093Z,6.25
2022-08-26T21:42:40.592Z,6.90
2022-08-26T21:45:07.379Z,5.22
2022-08-26T21:47:33.857Z,6.57
2022-08-26T21:50:00.343Z,6.87
2022-08-26T21:52:26.926Z,6.97
2022-08-26T21:55:01.231Z,7.85
2022-08-26T21:57:28.514Z,7.65
2022-08-26T21:59:55.661Z,6.55
2022-08-26T22:02:22.748Z,8.07
2022-08-26T22:04:49.455Z,5.63
2022-08-26T22:07:18.483Z,5.97
2022-08-26T22:09:46.917Z,7.28
2022-08-26T22:12:13.412Z,6.05
2022-08-26T22:14:39.902Z,8.27
2022-08-26T22:17:06.446Z,5.70
2022-08-26T22:19:34.020Z,7.03
2022-08-26T22:22:05.503Z,5.63
2022-08-26T22:24:32.263Z,5.20
2022-08-26T22:26:58.681Z,5.87
2022-08-26T22:29:25.594Z,7.63
2022-08-26T22:31:52.572Z,4.78
2022-08-26T22:34:20.628Z,5.70
2022-08-26T22:36:48.898Z,7.85
2022-08-26T22:39:21.927Z,4.20
2022-08-26T22:41:49.376Z,5.13
2022-08-26T22:44:17.515Z,5.10
2022-08-26T22:46:45.086Z,4.65
2022-08-26T22:49:17.672Z,4.82
2022-08-26T22:51:45.466Z,6.00
2022-08-26T22:54:12.562Z,6.60
2022-08-26T22:56:39.701Z,6.10
2022-08-26T22:59:10.031Z,6.45
2022-08-26T23:01:39.671Z,6.28
2022-08-26T23:04:07.803Z,7.07
2022-08-26T23:06:36.948Z,7.50
2022-08-26T23:09:05.034Z,6.75
2022-08-26T23:11:31.839Z,6.03
2022-08-26T23:13:58.261Z,6.10
2022-08-26T23:16:28.179Z,8.73
2022-08-26T23:19:02.342Z,8.38
2022-08-26T23:21:29.862Z,8.60
2022-08-26T23:23:56.332Z,8.52
2022-08-26T23:26:23.817Z,7.75
2022-08-26T23:28:50.288Z,6.53
2022-08-26T23:31:16.740Z,7.18
2022-08-26T23:34:01.779Z,7.97
2022-08-26T23:36:30.966Z,6.00
2022-08-26T23:39:00.819Z,9.63
2022-08-26T23:41:30.250Z,5.93
2022-08-26T23:43:59.528Z,6.28
2022-08-26T23:46:28.080Z,5.40
2022-08-26T23:48:54.500Z,7.13
2022-08-26T23:51:39.308Z,7.47
2022-08-26T23:54:06.527Z,10.07
2022-08-26T23:56:34.716Z,8.70
2022-08-26T23:59:01.132Z,9.18
